Terminal Aerodrome Forecast
Issued by NWS

Home | Current Version | Previous Version | Text Only | Print | Product List | Glossary On
Versions: 1 2 3 4 5 6 7 8 9 10 11 12 13
674
FTUS46 KMTR 251120
TAFOAK
TAF
KOAK 251120Z 2512/2618 01003KT P6SM OVC010
     FM251800 32010KT P6SM SCT010
     FM252000 30014G19KT P6SM FEW010
     FM260300 28012KT P6SM FEW010
     FM261100 30004KT P6SM BKN010
     FM261700 29004KT P6SM SCT010=

USA.gov is the U.S. government's official web portal to all federal, state and local government web resources and services.